TUCKAHOE MD US current weather conditions

sailwx.info

Wind from 300 at 4 knots gusting 13

Air temperature 5.6° C
Dewpoint -3.8° C

Last reported at 2019-Dec-05 16:16 UTC.
Time now 2019-Dec-05 17:38 UTC

Location: N 38°57' W 075°56'.
View on Google Maps.

See reports from other nearby stations

  
Tides and Currents Weather Stations Pressure Air Temp Water Temp Dewpoint Dewpoint Depression Visibility Wind Speed Wind Dir Waves Ship Positions
date/time (UTC)wind fromknots sea level pressurealtimeterstation pressurevisibilityair tempwater tempwave heightnotes
2019-Dec-05 16:16 300 4 gusting 13 5.6
2019-Dec-05 15:16 294 4 gusting 13 6.7
2019-Dec-05 14:16 302 6 gusting 16 6.7
2019-Dec-05 13:16 291 3 gusting 11 5.0
2019-Dec-05 12:16 291 4 gusting 14 5.0
2019-Dec-05 11:16 311 6 gusting 14 5.6
2019-Dec-05 10:16 289 3 gusting 10 5.0
2019-Dec-05 09:16 288 3 gusting 12 5.6
2019-Dec-05 08:16 295 3 gusting 10 5.6
2019-Dec-05 07:16 282 2 gusting 8 5.6
2019-Dec-05 06:16 294 3 gusting 12 6.1
2019-Dec-05 05:16 3.3
2019-Dec-05 04:16 3.9
2019-Dec-05 03:16 288 0 gusting 10 5.6
2019-Dec-05 02:16 296 3 gusting 9 6.7
2019-Dec-05 01:16 294 2 gusting 7 6.7
2019-Dec-05 00:16 316 0 gusting 4 6.7
2019-Dec-04 23:16 225 0 gusting 4 6.1
2019-Dec-04 22:16 6.1
2019-Dec-04 21:16 6.7
2019-Dec-04 20:16 239 0 gusting 8 7.2
2019-Dec-04 19:16 269 2 gusting 6 7.8
2019-Dec-04 18:16 282 3 gusting 8 8.3
2019-Dec-04 17:16 250 2 gusting 8 7.2
2019-Dec-04 16:16 273 3 gusting 10 7.2
2019-Dec-04 15:16 283 3 gusting 8 6.7
2019-Dec-04 14:16 255 1 gusting 3 5.0
2019-Dec-04 13:16 2.8
2019-Dec-04 12:16 2.2
2019-Dec-04 11:16 2.2
2019-Dec-04 10:16 302 1 gusting 7 2.8
2019-Dec-04 09:16 1.1
2019-Dec-04 08:16 0.6
2019-Dec-04 07:16 1.1
2019-Dec-04 06:16 1.1
2019-Dec-04 05:16 1.7
2019-Dec-04 04:16 1.7
2019-Dec-04 03:16 356 2 gusting 4 2.8
2019-Dec-04 02:16 3.3
2019-Dec-04 01:16 316 1 gusting 9 3.9
2019-Dec-04 00:16 337 1 gusting 7 3.9
2019-Dec-03 23:16 297 3 gusting 11 5.0
2019-Dec-03 22:16 309 2 gusting 11 5.6
2019-Dec-03 21:16 304 4 gusting 15 6.7
2019-Dec-03 20:16 318 6 gusting 17 7.8
2019-Dec-03 19:16 299 6 gusting 18 8.3
2019-Dec-03 18:16 320 6 gusting 19 8.3
2019-Dec-03 17:16 321 7 gusting 19 7.8